Coello, Illinois
Current Conditions -  °F | °C
As of 5:53 PM on Saturday 20 Dec 2014 (Local Time) from KMWA Reporting Station
Scattered Clouds Scattered Clouds  
Wind Chill: 29°   Ceiling: Unl
Heat Index: 34°   Visibility: 15mi
Dew Point: 30°   Wind: 6mph
Humidity: 87%   Direction: 70°ENE
Pressure: 30.27"   Gusts: NA
Location:  37.99°N, 89.07°W
Report Text: KMWA 202353Z 07005KT 15SM SCT150 01/M01 A3027
Loading
Personal Weather Stations






























Interactive Weather Map New forecast layout! Learn more

10-Day Weather Forecast

Advertisements
Track Severe Weather on mobile